createdAt,value
2024-04-23T00:02:16.293Z,25.90
2024-04-23T00:04:44.813Z,25.80
2024-04-23T00:07:15.358Z,25.60
2024-04-23T00:09:42.796Z,25.60
2024-04-23T00:12:10.175Z,25.50
2024-04-23T00:14:37.397Z,25.60
2024-04-23T00:17:06.217Z,25.60
2024-04-23T00:19:34.865Z,25.70
2024-04-23T00:22:02.480Z,25.70
2024-04-23T00:24:29.790Z,25.70
2024-04-23T00:26:59.966Z,25.80
2024-04-23T00:29:29.400Z,25.80
2024-04-23T00:31:57.489Z,25.70
2024-04-23T00:34:26.102Z,25.70
2024-04-23T00:36:58.594Z,25.70
2024-04-23T00:39:27.900Z,25.70
2024-04-23T00:41:55.261Z,25.60
2024-04-23T00:44:22.862Z,25.70
2024-04-23T00:46:51.462Z,25.60
2024-04-23T00:49:19.821Z,25.60
2024-04-23T00:51:52.071Z,25.60
2024-04-23T00:54:23.889Z,25.50
2024-04-23T00:56:52.949Z,25.50
2024-04-23T00:59:20.958Z,25.50
2024-04-23T01:01:49.418Z,25.50
2024-04-23T01:04:16.968Z,25.50
2024-04-23T01:06:44.459Z,25.40
2024-04-23T01:09:12.095Z,25.50
2024-04-23T01:11:39.804Z,25.40
2024-04-23T01:14:07.256Z,25.40
2024-04-23T01:16:41.012Z,25.30
2024-04-23T01:19:23.149Z,25.30
2024-04-23T01:22:06.591Z,25.40
2024-04-23T01:24:46.163Z,25.30
2024-04-23T01:29:41.393Z,25.30
2024-04-23T01:32:09.982Z,25.20
2024-04-23T01:34:39.299Z,25.20
2024-04-23T01:47:01.806Z,25.20
2024-04-23T01:49:29.313Z,25.20
2024-04-23T01:51:56.936Z,25.20
2024-04-23T01:54:24.837Z,25.10
2024-04-23T01:56:52.216Z,25.10
2024-04-23T01:59:19.616Z,25.10
2024-04-23T02:01:53.843Z,25.10
2024-04-23T02:04:22.474Z,25.10
2024-04-23T02:06:50.882Z,25.10
2024-04-23T02:09:18.966Z,25.10
2024-04-23T02:11:46.265Z,25.10
2024-04-23T02:16:41.460Z,25.10
2024-04-23T02:19:08.962Z,25.00
2024-04-23T02:28:59.876Z,25.00
2024-04-23T02:31:27.293Z,25.00
2024-04-23T02:43:45.876Z,24.70
2024-04-23T02:46:13.244Z,24.90
2024-04-23T02:48:40.525Z,24.80
2024-04-23T02:51:07.884Z,24.80
2024-04-23T02:53:35.104Z,24.70
2024-04-23T02:56:02.473Z,24.70
2024-04-23T02:58:29.838Z,24.70
2024-04-23T03:00:57.129Z,24.70
2024-04-23T03:03:24.409Z,24.60
2024-04-23T03:05:51.932Z,24.60
2024-04-23T03:08:19.151Z,24.60
2024-04-23T03:10:46.416Z,24.60
2024-04-23T03:13:13.930Z,24.60
2024-04-23T03:28:00.049Z,24.60
2024-04-23T03:30:27.412Z,24.60
2024-04-23T03:45:13.617Z,24.50
2024-04-23T03:50:10.682Z,24.40
2024-04-23T03:52:38.011Z,24.40
2024-04-23T03:55:05.775Z,24.30
2024-04-23T03:57:33.071Z,24.40
2024-04-23T04:00:00.665Z,24.30
2024-04-23T04:10:51.931Z,24.40
2024-04-23T04:20:47.947Z,24.30
2024-04-23T04:28:10.910Z,24.20
2024-04-23T04:30:38.408Z,24.20
2024-04-23T04:33:05.915Z,24.20
2024-04-23T04:35:33.326Z,24.10
2024-04-23T04:38:00.657Z,24.20
2024-04-23T04:40:28.543Z,24.10
2024-04-23T04:42:57.347Z,24.10
2024-04-23T04:50:20.304Z,24.00
2024-04-23T04:52:47.760Z,24.00
2024-04-23T04:57:42.772Z,23.90
2024-04-23T05:00:10.857Z,24.00
2024-04-23T05:02:39.595Z,23.90
2024-04-23T05:05:07.255Z,23.90
2024-04-23T05:07:34.728Z,23.90
2024-04-23T05:10:02.204Z,23.90
2024-04-23T05:12:30.170Z,23.90
2024-04-23T05:14:57.572Z,23.90
2024-04-23T05:17:24.884Z,23.80
2024-04-23T05:19:52.259Z,23.80
2024-04-23T05:22:19.631Z,23.80
2024-04-23T05:24:46.920Z,23.80
2024-04-23T05:29:55.249Z,23.80
2024-04-23T05:32:45.079Z,23.80
2024-04-23T05:35:14.428Z,23.70
